sensor_id;sensor_type;location;lat;lon;timestamp;temperature;humidity
70734;DHT22;58320;48.804;9.252;2023-12-20T00:01:24;6.50;80.80
70734;DHT22;58320;48.804;9.252;2023-12-20T00:03:50;6.50;81.20
70734;DHT22;58320;48.804;9.252;2023-12-20T00:06:15;6.50;81.60
70734;DHT22;58320;48.804;9.252;2023-12-20T00:08:41;6.50;81.80
70734;DHT22;58320;48.804;9.252;2023-12-20T00:11:07;6.60;81.90
70734;DHT22;58320;48.804;9.252;2023-12-20T00:13:33;6.60;81.40
70734;DHT22;58320;48.804;9.252;2023-12-20T00:15:58;6.60;81.30
70734;DHT22;58320;48.804;9.252;2023-12-20T00:18:24;6.70;81.20
70734;DHT22;58320;48.804;9.252;2023-12-20T00:20:50;6.70;81.90
70734;DHT22;58320;48.804;9.252;2023-12-20T00:23:16;6.70;82.50
70734;DHT22;58320;48.804;9.252;2023-12-20T00:25:41;6.70;83.00
70734;DHT22;58320;48.804;9.252;2023-12-20T00:28:07;6.70;83.80
70734;DHT22;58320;48.804;9.252;2023-12-20T00:30:33;6.60;84.20
70734;DHT22;58320;48.804;9.252;2023-12-20T00:32:58;6.50;84.50
70734;DHT22;58320;48.804;9.252;2023-12-20T00:35:24;6.50;85.10
70734;DHT22;58320;48.804;9.252;2023-12-20T00:37:50;6.50;86.70
70734;DHT22;58320;48.804;9.252;2023-12-20T00:40:16;6.40;88.00
70734;DHT22;58320;48.804;9.252;2023-12-20T00:42:41;6.30;88.90
70734;DHT22;58320;48.804;9.252;2023-12-20T00:45:07;6.20;89.90
70734;DHT22;58320;48.804;9.252;2023-12-20T00:47:33;6.10;91.80
70734;DHT22;58320;48.804;9.252;2023-12-20T00:49:59;6.00;93.30
70734;DHT22;58320;48.804;9.252;2023-12-20T00:52:25;5.90;94.50
70734;DHT22;58320;48.804;9.252;2023-12-20T00:54:51;5.90;95.60
70734;DHT22;58320;48.804;9.252;2023-12-20T00:57:17;5.80;96.40
70734;DHT22;58320;48.804;9.252;2023-12-20T00:59:43;5.80;97.40
70734;DHT22;58320;48.804;9.252;2023-12-20T01:02:08;5.70;98.40
70734;DHT22;58320;48.804;9.252;2023-12-20T01:04:35;5.70;98.70
70734;DHT22;58320;48.804;9.252;2023-12-20T01:07:01;5.70;99.00
70734;DHT22;58320;48.804;9.252;2023-12-20T01:09:26;5.70;99.70
70734;DHT22;58320;48.804;9.252;2023-12-20T01:11:52;5.60;99.90
70734;DHT22;58320;48.804;9.252;2023-12-20T01:14:18;5.60;99.90
70734;DHT22;58320;48.804;9.252;2023-12-20T01:16:44;5.60;99.90
70734;DHT22;58320;48.804;9.252;2023-12-20T01:19:10;5.50;99.90
70734;DHT22;58320;48.804;9.252;2023-12-20T01:21:36;5.50;99.90
70734;DHT22;58320;48.804;9.252;2023-12-20T01:24:02;5.50;99.90
70734;DHT22;58320;48.804;9.252;2023-12-20T01:26:27;5.50;99.90
70734;DHT22;58320;48.804;9.252;2023-12-20T01:28:53;5.50;99.90
70734;DHT22;58320;48.804;9.252;2023-12-20T01:31:19;5.50;99.90
70734;DHT22;58320;48.804;9.252;2023-12-20T01:33:45;5.50;99.90
70734;DHT22;58320;48.804;9.252;2023-12-20T01:36:11;5.40;99.90
70734;DHT22;58320;48.804;9.252;2023-12-20T01:38:37;5.40;99.90
70734;DHT22;58320;48.804;9.252;2023-12-20T01:41:03;5.40;99.90
70734;DHT22;58320;48.804;9.252;2023-12-20T01:43:30;5.50;99.90
70734;DHT22;58320;48.804;9.252;2023-12-20T01:45:59;5.40;99.90
70734;DHT22;58320;48.804;9.252;2023-12-20T01:48:25;5.40;99.90
70734;DHT22;58320;48.804;9.252;2023-12-20T01:50:52;5.50;99.90
70734;DHT22;58320;48.804;9.252;2023-12-20T01:53:20;5.40;99.90
70734;DHT22;58320;48.804;9.252;2023-12-20T01:55:48;5.50;99.90
70734;DHT22;58320;48.804;9.252;2023-12-20T01:58:15;5.40;99.90
70734;DHT22;58320;48.804;9.252;2023-12-20T02:00:41;5.40;99.90
70734;DHT22;58320;48.804;9.252;2023-12-20T02:03:06;5.40;99.90
70734;DHT22;58320;48.804;9.252;2023-12-20T02:05:35;5.40;99.90
70734;DHT22;58320;48.804;9.252;2023-12-20T02:08:02;5.40;99.90
70734;DHT22;58320;48.804;9.252;2023-12-20T02:10:28;5.50;99.90
70734;DHT22;58320;48.804;9.252;2023-12-20T02:12:54;5.50;99.90
70734;DHT22;58320;48.804;9.252;2023-12-20T02:15:20;5.50;99.90
70734;DHT22;58320;48.804;9.252;2023-12-20T02:17:47;5.50;99.90
70734;DHT22;58320;48.804;9.252;2023-12-20T02:20:13;5.50;99.90
70734;DHT22;58320;48.804;9.252;2023-12-20T02:22:39;5.50;99.90
70734;DHT22;58320;48.804;9.252;2023-12-20T02:25:05;5.50;99.90
70734;DHT22;58320;48.804;9.252;2023-12-20T02:27:31;5.50;99.90
70734;DHT22;58320;48.804;9.252;2023-12-20T02:29:57;5.50;99.90
70734;DHT22;58320;48.804;9.252;2023-12-20T02:32:24;5.50;99.90
70734;DHT22;58320;48.804;9.252;2023-12-20T02:34:53;5.50;99.90
70734;DHT22;58320;48.804;9.252;2023-12-20T02:37:19;5.50;99.90
70734;DHT22;58320;48.804;9.252;2023-12-20T02:39:45;5.50;99.90
70734;DHT22;58320;48.804;9.252;2023-12-20T02:42:10;5.50;99.90
70734;DHT22;58320;48.804;9.252;2023-12-20T02:44:36;5.60;99.90
70734;DHT22;58320;48.804;9.252;2023-12-20T02:47:03;5.60;99.90
70734;DHT22;58320;48.804;9.252;2023-12-20T02:49:28;5.60;99.90
70734;DHT22;58320;48.804;9.252;2023-12-20T02:51:54;5.60;99.90
70734;DHT22;58320;48.804;9.252;2023-12-20T02:54:20;5.60;99.90
70734;DHT22;58320;48.804;9.252;2023-12-20T02:56:47;5.50;99.90
70734;DHT22;58320;48.804;9.252;2023-12-20T02:59:13;5.50;99.90
70734;DHT22;58320;48.804;9.252;2023-12-20T03:01:43;5.60;99.90
70734;DHT22;58320;48.804;9.252;2023-12-20T03:04:10;5.60;99.90
70734;DHT22;58320;48.804;9.252;2023-12-20T03:06:36;5.60;99.90
70734;DHT22;58320;48.804;9.252;2023-12-20T03:09:02;5.50;99.90
70734;DHT22;58320;48.804;9.252;2023-12-20T03:11:28;5.50;99.90
70734;DHT22;58320;48.804;9.252;2023-12-20T03:13:54;5.50;99.90
70734;DHT22;58320;48.804;9.252;2023-12-20T03:16:21;5.50;99.90
70734;DHT22;58320;48.804;9.252;2023-12-20T03:18:46;5.50;99.90
70734;DHT22;58320;48.804;9.252;2023-12-20T03:21:12;5.50;99.90
70734;DHT22;58320;48.804;9.252;2023-12-20T03:23:38;5.50;99.90
70734;DHT22;58320;48.804;9.252;2023-12-20T03:26:07;5.50;99.90
70734;DHT22;58320;48.804;9.252;2023-12-20T03:28:33;5.50;99.90
70734;DHT22;58320;48.804;9.252;2023-12-20T03:30:59;5.50;99.90
70734;DHT22;58320;48.804;9.252;2023-12-20T03:33:25;5.50;99.90
70734;DHT22;58320;48.804;9.252;2023-12-20T03:35:51;5.50;99.90
70734;DHT22;58320;48.804;9.252;2023-12-20T03:38:16;5.50;99.90
70734;DHT22;58320;48.804;9.252;2023-12-20T03:40:42;5.40;99.90
70734;DHT22;58320;48.804;9.252;2023-12-20T03:43:08;5.40;99.90
70734;DHT22;58320;48.804;9.252;2023-12-20T03:45:33;5.40;99.90
70734;DHT22;58320;48.804;9.252;2023-12-20T03:47:59;5.40;99.90
70734;DHT22;58320;48.804;9.252;2023-12-20T03:50:26;5.40;99.90
70734;DHT22;58320;48.804;9.252;2023-12-20T03:52:52;5.40;99.90
70734;DHT22;58320;48.804;9.252;2023-12-20T03:55:18;5.30;99.90
70734;DHT22;58320;48.804;9.252;2023-12-20T03:57:44;5.30;99.90
70734;DHT22;58320;48.804;9.252;2023-12-20T04:03:20;5.30;99.90
70734;DHT22;58320;48.804;9.252;2023-12-20T04:05:46;5.30;99.90
70734;DHT22;58320;48.804;9.252;2023-12-20T04:08:12;5.20;99.90
70734;DHT22;58320;48.804;9.252;2023-12-20T04:10:37;5.20;99.90
70734;DHT22;58320;48.804;9.252;2023-12-20T04:13:04;5.20;99.90
70734;DHT22;58320;48.804;9.252;2023-12-20T04:15:29;5.10;99.90
70734;DHT22;58320;48.804;9.252;2023-12-20T04:17:55;5.10;99.90
70734;DHT22;58320;48.804;9.252;2023-12-20T04:20:21;5.10;99.90
70734;DHT22;58320;48.804;9.252;2023-12-20T04:22:47;5.00;99.90
70734;DHT22;58320;48.804;9.252;2023-12-20T04:25:12;5.00;99.90
70734;DHT22;58320;48.804;9.252;2023-12-20T04:27:38;5.00;99.90
70734;DHT22;58320;48.804;9.252;2023-12-20T04:30:04;5.00;99.90
70734;DHT22;58320;48.804;9.252;2023-12-20T04:32:30;5.00;99.90
70734;DHT22;58320;48.804;9.252;2023-12-20T04:34:56;5.00;99.90
70734;DHT22;58320;48.804;9.252;2023-12-20T04:37:22;5.00;99.90
70734;DHT22;58320;48.804;9.252;2023-12-20T04:39:48;5.00;99.90
70734;DHT22;58320;48.804;9.252;2023-12-20T04:42:14;5.00;99.90
70734;DHT22;58320;48.804;9.252;2023-12-20T04:44:40;5.00;99.90
70734;DHT22;58320;48.804;9.252;2023-12-20T04:47:05;4.90;99.90
70734;DHT22;58320;48.804;9.252;2023-12-20T04:49:31;5.00;99.90
70734;DHT22;58320;48.804;9.252;2023-12-20T04:51:57;5.00;99.90
70734;DHT22;58320;48.804;9.252;2023-12-20T04:54:22;5.00;99.90
70734;DHT22;58320;48.804;9.252;2023-12-20T04:56:49;5.00;99.90
70734;DHT22;58320;48.804;9.252;2023-12-20T04:59:14;5.00;99.90
70734;DHT22;58320;48.804;9.252;2023-12-20T05:01:40;5.00;99.90
70734;DHT22;58320;48.804;9.252;2023-12-20T05:04:06;5.00;99.90
70734;DHT22;58320;48.804;9.252;2023-12-20T05:06:32;5.10;99.90
70734;DHT22;58320;48.804;9.252;2023-12-20T05:08:58;5.00;99.90
70734;DHT22;58320;48.804;9.252;2023-12-20T05:11:24;5.10;99.90
70734;DHT22;58320;48.804;9.252;2023-12-20T05:13:49;5.00;99.90
70734;DHT22;58320;48.804;9.252;2023-12-20T05:16:15;5.10;99.90
70734;DHT22;58320;48.804;9.252;2023-12-20T05:18:43;5.10;99.90
70734;DHT22;58320;48.804;9.252;2023-12-20T05:21:10;5.10;99.90
70734;DHT22;58320;48.804;9.252;2023-12-20T05:23:36;5.10;99.90
70734;DHT22;58320;48.804;9.252;2023-12-20T05:26:02;5.10;99.90
70734;DHT22;58320;48.804;9.252;2023-12-20T05:28:27;5.10;99.90
70734;DHT22;58320;48.804;9.252;2023-12-20T05:30:54;5.10;99.90
70734;DHT22;58320;48.804;9.252;2023-12-20T05:33:19;5.10;99.90
70734;DHT22;58320;48.804;9.252;2023-12-20T05:35:45;5.10;99.90
70734;DHT22;58320;48.804;9.252;2023-12-20T05:38:11;5.10;99.90
70734;DHT22;58320;48.804;9.252;2023-12-20T05:40:36;5.10;99.90
70734;DHT22;58320;48.804;9.252;2023-12-20T05:43:02;5.10;99.90
70734;DHT22;58320;48.804;9.252;2023-12-20T05:45:28;5.20;99.90
70734;DHT22;58320;48.804;9.252;2023-12-20T05:47:54;5.10;99.90
70734;DHT22;58320;48.804;9.252;2023-12-20T05:50:20;5.10;99.90
70734;DHT22;58320;48.804;9.252;2023-12-20T05:52:46;5.10;99.90
70734;DHT22;58320;48.804;9.252;2023-12-20T05:55:12;5.10;99.90
70734;DHT22;58320;48.804;9.252;2023-12-20T05:57:37;5.20;99.90
70734;DHT22;58320;48.804;9.252;2023-12-20T06:00:04;5.10;99.90
70734;DHT22;58320;48.804;9.252;2023-12-20T06:02:30;5.10;99.90
70734;DHT22;58320;48.804;9.252;2023-12-20T06:04:55;5.10;99.90
70734;DHT22;58320;48.804;9.252;2023-12-20T06:07:21;5.10;99.90
70734;DHT22;58320;48.804;9.252;2023-12-20T06:09:47;5.10;99.90
70734;DHT22;58320;48.804;9.252;2023-12-20T06:12:12;5.10;99.90
70734;DHT22;58320;48.804;9.252;2023-12-20T06:14:38;5.10;99.90
70734;DHT22;58320;48.804;9.252;2023-12-20T06:17:04;5.00;99.90
70734;DHT22;58320;48.804;9.252;2023-12-20T06:19:29;5.00;99.90
70734;DHT22;58320;48.804;9.252;2023-12-20T06:21:55;5.10;99.90
70734;DHT22;58320;48.804;9.252;2023-12-20T06:24:21;5.00;99.90
70734;DHT22;58320;48.804;9.252;2023-12-20T06:26:47;5.10;99.90
70734;DHT22;58320;48.804;9.252;2023-12-20T06:29:12;5.10;99.90
70734;DHT22;58320;48.804;9.252;2023-12-20T06:31:38;5.10;99.90
70734;DHT22;58320;48.804;9.252;2023-12-20T06:34:04;5.10;99.90
70734;DHT22;58320;48.804;9.252;2023-12-20T06:36:29;5.10;99.90
70734;DHT22;58320;48.804;9.252;2023-12-20T06:38:55;5.10;99.90
70734;DHT22;58320;48.804;9.252;2023-12-20T06:41:21;5.10;99.90
70734;DHT22;58320;48.804;9.252;2023-12-20T06:43:47;5.10;99.90
70734;DHT22;58320;48.804;9.252;2023-12-20T06:46:12;5.10;99.90
70734;DHT22;58320;48.804;9.252;2023-12-20T06:48:39;5.10;99.90
70734;DHT22;58320;48.804;9.252;2023-12-20T06:51:05;5.10;99.90
70734;DHT22;58320;48.804;9.252;2023-12-20T06:53:31;5.20;99.90
70734;DHT22;58320;48.804;9.252;2023-12-20T06:55:57;5.20;99.90
70734;DHT22;58320;48.804;9.252;2023-12-20T06:58:23;5.20;99.90
70734;DHT22;58320;48.804;9.252;2023-12-20T07:00:49;5.20;99.90
70734;DHT22;58320;48.804;9.252;2023-12-20T07:03:15;5.20;99.90
70734;DHT22;58320;48.804;9.252;2023-12-20T07:05:41;5.20;99.90
70734;DHT22;58320;48.804;9.252;2023-12-20T07:08:07;5.20;99.90
70734;DHT22;58320;48.804;9.252;2023-12-20T07:10:33;5.20;99.90
70734;DHT22;58320;48.804;9.252;2023-12-20T07:12:59;5.30;99.90
70734;DHT22;58320;48.804;9.252;2023-12-20T07:15:25;5.20;99.90
70734;DHT22;58320;48.804;9.252;2023-12-20T07:17:52;5.30;99.90
70734;DHT22;58320;48.804;9.252;2023-12-20T07:20:17;5.30;99.90
70734;DHT22;58320;48.804;9.252;2023-12-20T07:22:43;5.30;99.90
70734;DHT22;58320;48.804;9.252;2023-12-20T07:25:09;5.30;99.90
70734;DHT22;58320;48.804;9.252;2023-12-20T07:27:35;5.30;99.90
70734;DHT22;58320;48.804;9.252;2023-12-20T07:30:01;5.30;99.90
70734;DHT22;58320;48.804;9.252;2023-12-20T07:32:27;5.40;99.90
70734;DHT22;58320;48.804;9.252;2023-12-20T07:34:53;5.40;99.90
70734;DHT22;58320;48.804;9.252;2023-12-20T07:37:20;5.40;99.90
70734;DHT22;58320;48.804;9.252;2023-12-20T07:39:46;5.40;99.90
70734;DHT22;58320;48.804;9.252;2023-12-20T07:42:12;5.40;99.90
70734;DHT22;58320;48.804;9.252;2023-12-20T07:44:37;5.30;99.90
70734;DHT22;58320;48.804;9.252;2023-12-20T07:47:03;5.30;99.90
70734;DHT22;58320;48.804;9.252;2023-12-20T07:49:30;5.30;99.90
70734;DHT22;58320;48.804;9.252;2023-12-20T07:51:57;5.30;99.90
70734;DHT22;58320;48.804;9.252;2023-12-20T07:54:23;5.20;99.90
70734;DHT22;58320;48.804;9.252;2023-12-20T07:56:48;5.20;99.90
70734;DHT22;58320;48.804;9.252;2023-12-20T07:59:14;5.20;99.90
70734;DHT22;58320;48.804;9.252;2023-12-20T08:01:40;5.20;99.90
70734;DHT22;58320;48.804;9.252;2023-12-20T08:04:06;5.10;99.90
70734;DHT22;58320;48.804;9.252;2023-12-20T08:06:31;5.10;99.90
70734;DHT22;58320;48.804;9.252;2023-12-20T08:08:57;5.00;99.90
70734;DHT22;58320;48.804;9.252;2023-12-20T08:11:23;5.00;99.90
70734;DHT22;58320;48.804;9.252;2023-12-20T08:13:48;4.90;99.90
70734;DHT22;58320;48.804;9.252;2023-12-20T08:16:14;4.90;99.90
70734;DHT22;58320;48.804;9.252;2023-12-20T08:18:43;4.80;99.90
70734;DHT22;58320;48.804;9.252;2023-12-20T08:21:08;4.80;99.90
70734;DHT22;58320;48.804;9.252;2023-12-20T08:23:34;4.80;99.90
70734;DHT22;58320;48.804;9.252;2023-12-20T08:26:07;4.80;98.60
70734;DHT22;58320;48.804;9.252;2023-12-20T08:28:33;4.80;97.40
70734;DHT22;58320;48.804;9.252;2023-12-20T08:31:00;4.80;96.80
70734;DHT22;58320;48.804;9.252;2023-12-20T08:33:26;4.80;95.80
70734;DHT22;58320;48.804;9.252;2023-12-20T08:35:51;4.90;94.30
70734;DHT22;58320;48.804;9.252;2023-12-20T08:38:17;4.90;93.10
70734;DHT22;58320;48.804;9.252;2023-12-20T08:40:43;4.90;93.80
70734;DHT22;58320;48.804;9.252;2023-12-20T08:43:10;4.90;93.60
70734;DHT22;58320;48.804;9.252;2023-12-20T08:45:36;4.80;93.80
70734;DHT22;58320;48.804;9.252;2023-12-20T08:48:02;4.80;93.80
70734;DHT22;58320;48.804;9.252;2023-12-20T08:50:28;4.80;92.80
70734;DHT22;58320;48.804;9.252;2023-12-20T08:52:55;4.80;92.40
70734;DHT22;58320;48.804;9.252;2023-12-20T08:55:21;4.80;92.30
70734;DHT22;58320;48.804;9.252;2023-12-20T08:57:46;4.80;91.30
70734;DHT22;58320;48.804;9.252;2023-12-20T09:00:13;4.90;91.40
70734;DHT22;58320;48.804;9.252;2023-12-20T09:02:39;5.10;89.60
70734;DHT22;58320;48.804;9.252;2023-12-20T09:05:05;5.30;88.30
70734;DHT22;58320;48.804;9.252;2023-12-20T09:07:30;5.40;87.50
70734;DHT22;58320;48.804;9.252;2023-12-20T09:09:57;5.50;86.80
70734;DHT22;58320;48.804;9.252;2023-12-20T09:12:23;5.60;85.50
70734;DHT22;58320;48.804;9.252;2023-12-20T09:14:51;5.70;85.70
70734;DHT22;58320;48.804;9.252;2023-12-20T09:17:17;5.80;85.30
70734;DHT22;58320;48.804;9.252;2023-12-20T09:19:44;5.80;84.30
70734;DHT22;58320;48.804;9.252;2023-12-20T09:22:10;5.90;84.60
70734;DHT22;58320;48.804;9.252;2023-12-20T09:24:36;6.00;83.60
70734;DHT22;58320;48.804;9.252;2023-12-20T09:27:02;6.00;83.20
70734;DHT22;58320;48.804;9.252;2023-12-20T09:29:29;6.00;83.30
70734;DHT22;58320;48.804;9.252;2023-12-20T09:31:55;6.00;83.10
70734;DHT22;58320;48.804;9.252;2023-12-20T09:34:20;6.10;82.80
70734;DHT22;58320;48.804;9.252;2023-12-20T09:36:47;6.20;82.70
70734;DHT22;58320;48.804;9.252;2023-12-20T09:39:14;6.20;81.70
70734;DHT22;58320;48.804;9.252;2023-12-20T09:41:43;6.30;80.60
70734;DHT22;58320;48.804;9.252;2023-12-20T09:44:15;6.30;80.90
70734;DHT22;58320;48.804;9.252;2023-12-20T09:46:46;6.40;79.70
70734;DHT22;58320;48.804;9.252;2023-12-20T09:49:17;6.40;78.70
70734;DHT22;58320;48.804;9.252;2023-12-20T09:51:43;6.40;78.00
70734;DHT22;58320;48.804;9.252;2023-12-20T09:54:09;6.40;77.20
70734;DHT22;58320;48.804;9.252;2023-12-20T09:56:35;6.50;78.10
70734;DHT22;58320;48.804;9.252;2023-12-20T09:59:02;6.60;77.10
70734;DHT22;58320;48.804;9.252;2023-12-20T10:01:28;6.60;75.40
70734;DHT22;58320;48.804;9.252;2023-12-20T10:03:54;6.60;75.30
70734;DHT22;58320;48.804;9.252;2023-12-20T10:06:21;6.70;74.60
70734;DHT22;58320;48.804;9.252;2023-12-20T10:08:47;6.70;73.70
70734;DHT22;58320;48.804;9.252;2023-12-20T10:11:13;6.60;72.40
70734;DHT22;58320;48.804;9.252;2023-12-20T10:13:40;6.70;72.20
70734;DHT22;58320;48.804;9.252;2023-12-20T10:16:06;6.70;71.60
70734;DHT22;58320;48.804;9.252;2023-12-20T10:18:36;6.70;71.60
70734;DHT22;58320;48.804;9.252;2023-12-20T10:21:02;6.80;71.20
70734;DHT22;58320;48.804;9.252;2023-12-20T10:23:29;6.80;71.40
70734;DHT22;58320;48.804;9.252;2023-12-20T10:25:57;6.70;70.70
70734;DHT22;58320;48.804;9.252;2023-12-20T10:28:23;6.60;69.50
70734;DHT22;58320;48.804;9.252;2023-12-20T10:30:53;6.50;69.80
70734;DHT22;58320;48.804;9.252;2023-12-20T10:33:26;6.40;70.10
70734;DHT22;58320;48.804;9.252;2023-12-20T10:35:53;6.30;70.10
70734;DHT22;58320;48.804;9.252;2023-12-20T10:38:19;6.20;67.60
70734;DHT22;58320;48.804;9.252;2023-12-20T10:40:46;6.10;70.10
70734;DHT22;58320;48.804;9.252;2023-12-20T10:43:12;6.10;70.00
70734;DHT22;58320;48.804;9.252;2023-12-20T10:45:38;6.10;71.30
70734;DHT22;58320;48.804;9.252;2023-12-20T10:48:05;6.20;72.20
70734;DHT22;58320;48.804;9.252;2023-12-20T10:50:31;6.10;72.10
70734;DHT22;58320;48.804;9.252;2023-12-20T10:52:58;6.10;72.30
70734;DHT22;58320;48.804;9.252;2023-12-20T10:55:24;6.10;73.20
70734;DHT22;58320;48.804;9.252;2023-12-20T10:58:11;6.10;72.50
70734;DHT22;58320;48.804;9.252;2023-12-20T11:00:40;6.10;72.20
70734;DHT22;58320;48.804;9.252;2023-12-20T11:03:09;6.00;73.00
70734;DHT22;58320;48.804;9.252;2023-12-20T11:05:58;6.00;73.40
70734;DHT22;58320;48.804;9.252;2023-12-20T11:08:29;6.00;71.90
70734;DHT22;58320;48.804;9.252;2023-12-20T11:11:20;6.00;71.50
70734;DHT22;58320;48.804;9.252;2023-12-20T11:14:02;6.10;70.60
70734;DHT22;58320;48.804;9.252;2023-12-20T11:16:32;6.30;70.10
70734;DHT22;58320;48.804;9.252;2023-12-20T11:18:58;6.60;69.40
70734;DHT22;58320;48.804;9.252;2023-12-20T11:21:30;6.70;68.60
70734;DHT22;58320;48.804;9.252;2023-12-20T11:23:56;6.70;68.70
70734;DHT22;58320;48.804;9.252;2023-12-20T11:26:28;6.60;68.70
70734;DHT22;58320;48.804;9.252;2023-12-20T11:29:30;6.50;69.30
70734;DHT22;58320;48.804;9.252;2023-12-20T11:34:58;6.50;69.70
70734;DHT22;58320;48.804;9.252;2023-12-20T11:37:41;6.50;69.30
70734;DHT22;58320;48.804;9.252;2023-12-20T11:40:13;6.40;67.70
70734;DHT22;58320;48.804;9.252;2023-12-20T11:42:41;6.30;67.70
70734;DHT22;58320;48.804;9.252;2023-12-20T11:45:11;6.20;67.80
70734;DHT22;58320;48.804;9.252;2023-12-20T11:47:45;6.30;68.60
70734;DHT22;58320;48.804;9.252;2023-12-20T11:50:12;6.30;67.20
70734;DHT22;58320;48.804;9.252;2023-12-20T11:52:38;6.30;67.30
70734;DHT22;58320;48.804;9.252;2023-12-20T11:55:04;6.30;68.20
70734;DHT22;58320;48.804;9.252;2023-12-20T11:57:33;6.30;68.00
70734;DHT22;58320;48.804;9.252;2023-12-20T11:59:59;6.30;68.90
70734;DHT22;58320;48.804;9.252;2023-12-20T12:02:25;6.30;67.50
70734;DHT22;58320;48.804;9.252;2023-12-20T12:04:51;6.20;68.00
70734;DHT22;58320;48.804;9.252;2023-12-20T12:07:17;6.20;67.10
70734;DHT22;58320;48.804;9.252;2023-12-20T12:09:43;6.10;68.40
70734;DHT22;58320;48.804;9.252;2023-12-20T12:12:11;6.20;67.70
70734;DHT22;58320;48.804;9.252;2023-12-20T12:14:38;6.20;68.00
70734;DHT22;58320;48.804;9.252;2023-12-20T12:17:04;6.40;68.90
70734;DHT22;58320;48.804;9.252;2023-12-20T12:19:30;6.50;67.70
70734;DHT22;58320;48.804;9.252;2023-12-20T12:22:14;6.60;67.00
70734;DHT22;58320;48.804;9.252;2023-12-20T12:24:41;6.60;67.00
70734;DHT22;58320;48.804;9.252;2023-12-20T12:27:10;6.70;66.60
70734;DHT22;58320;48.804;9.252;2023-12-20T12:29:37;6.80;65.90
70734;DHT22;58320;48.804;9.252;2023-12-20T12:32:07;6.80;66.10
70734;DHT22;58320;48.804;9.252;2023-12-20T12:34:34;6.90;65.60
70734;DHT22;58320;48.804;9.252;2023-12-20T12:37:01;6.90;65.50
70734;DHT22;58320;48.804;9.252;2023-12-20T12:39:27;6.80;65.70
70734;DHT22;58320;48.804;9.252;2023-12-20T12:41:55;6.90;66.00
70734;DHT22;58320;48.804;9.252;2023-12-20T12:44:22;7.40;65.20
70734;DHT22;58320;48.804;9.252;2023-12-20T12:46:50;8.00;62.80
70734;DHT22;58320;48.804;9.252;2023-12-20T12:49:19;8.20;61.60
70734;DHT22;58320;48.804;9.252;2023-12-20T12:51:46;8.30;61.50
70734;DHT22;58320;48.804;9.252;2023-12-20T12:54:12;8.50;61.20
70734;DHT22;58320;48.804;9.252;2023-12-20T12:56:39;8.70;60.00
70734;DHT22;58320;48.804;9.252;2023-12-20T12:59:05;8.40;60.50
70734;DHT22;58320;48.804;9.252;2023-12-20T13:01:31;8.00;61.00
70734;DHT22;58320;48.804;9.252;2023-12-20T13:03:57;7.60;62.70
70734;DHT22;58320;48.804;9.252;2023-12-20T13:06:23;7.30;64.10
70734;DHT22;58320;48.804;9.252;2023-12-20T13:08:49;7.10;64.60
70734;DHT22;58320;48.804;9.252;2023-12-20T13:11:15;7.00;64.90
70734;DHT22;58320;48.804;9.252;2023-12-20T13:13:40;6.90;65.50
70734;DHT22;58320;48.804;9.252;2023-12-20T13:16:07;6.90;65.90
70734;DHT22;58320;48.804;9.252;2023-12-20T13:18:33;6.90;65.80
70734;DHT22;58320;48.804;9.252;2023-12-20T13:20:59;6.80;65.90
70734;DHT22;58320;48.804;9.252;2023-12-20T13:23:24;6.70;65.90
70734;DHT22;58320;48.804;9.252;2023-12-20T13:25:50;6.60;65.70
70734;DHT22;58320;48.804;9.252;2023-12-20T13:28:16;6.60;66.50
70734;DHT22;58320;48.804;9.252;2023-12-20T13:30:42;6.70;66.40
70734;DHT22;58320;48.804;9.252;2023-12-20T13:33:08;6.90;66.10
70734;DHT22;58320;48.804;9.252;2023-12-20T13:35:34;7.20;64.80
70734;DHT22;58320;48.804;9.252;2023-12-20T13:38:00;7.20;64.40
70734;DHT22;58320;48.804;9.252;2023-12-20T13:40:26;7.10;64.60
70734;DHT22;58320;48.804;9.252;2023-12-20T13:42:53;7.00;64.30
70734;DHT22;58320;48.804;9.252;2023-12-20T13:45:20;6.90;65.10
70734;DHT22;58320;48.804;9.252;2023-12-20T13:47:46;6.80;64.50
70734;DHT22;58320;48.804;9.252;2023-12-20T13:50:11;6.70;65.10
70734;DHT22;58320;48.804;9.252;2023-12-20T13:52:38;6.70;65.10
70734;DHT22;58320;48.804;9.252;2023-12-20T13:55:04;6.60;66.00
70734;DHT22;58320;48.804;9.252;2023-12-20T13:57:33;6.60;66.60
70734;DHT22;58320;48.804;9.252;2023-12-20T13:59:59;6.50;66.80
70734;DHT22;58320;48.804;9.252;2023-12-20T14:02:25;6.50;67.50
70734;DHT22;58320;48.804;9.252;2023-12-20T14:04:52;6.40;67.90
70734;DHT22;58320;48.804;9.252;2023-12-20T14:07:18;6.30;68.60
70734;DHT22;58320;48.804;9.252;2023-12-20T14:09:44;6.20;69.10
70734;DHT22;58320;48.804;9.252;2023-12-20T14:12:11;6.20;69.30
70734;DHT22;58320;48.804;9.252;2023-12-20T14:14:37;6.20;69.70
70734;DHT22;58320;48.804;9.252;2023-12-20T14:17:03;6.20;69.60
70734;DHT22;58320;48.804;9.252;2023-12-20T14:19:31;6.20;69.90
70734;DHT22;58320;48.804;9.252;2023-12-20T14:21:57;6.20;69.70
70734;DHT22;58320;48.804;9.252;2023-12-20T14:24:26;6.10;70.40
70734;DHT22;58320;48.804;9.252;2023-12-20T14:26:52;6.10;70.80
70734;DHT22;58320;48.804;9.252;2023-12-20T14:29:18;6.00;71.70
70734;DHT22;58320;48.804;9.252;2023-12-20T14:31:44;5.90;74.20
70734;DHT22;58320;48.804;9.252;2023-12-20T14:34:11;5.70;75.60
70734;DHT22;58320;48.804;9.252;2023-12-20T14:36:37;5.50;75.60
70734;DHT22;58320;48.804;9.252;2023-12-20T14:39:03;5.40;76.20
70734;DHT22;58320;48.804;9.252;2023-12-20T14:41:30;5.40;76.40
70734;DHT22;58320;48.804;9.252;2023-12-20T14:43:56;5.30;75.60
70734;DHT22;58320;48.804;9.252;2023-12-20T14:46:22;5.40;76.30
70734;DHT22;58320;48.804;9.252;2023-12-20T14:48:47;5.40;76.70
70734;DHT22;58320;48.804;9.252;2023-12-20T14:51:14;5.30;76.40
70734;DHT22;58320;48.804;9.252;2023-12-20T14:53:40;5.40;76.20
70734;DHT22;58320;48.804;9.252;2023-12-20T14:56:07;5.40;75.70
70734;DHT22;58320;48.804;9.252;2023-12-20T14:58:33;5.40;76.10
70734;DHT22;58320;48.804;9.252;2023-12-20T15:00:59;5.40;76.40
70734;DHT22;58320;48.804;9.252;2023-12-20T15:03:26;5.40;76.70
70734;DHT22;58320;48.804;9.252;2023-12-20T15:05:52;5.40;77.20
70734;DHT22;58320;48.804;9.252;2023-12-20T15:08:17;5.30;77.80
70734;DHT22;58320;48.804;9.252;2023-12-20T15:10:43;5.30;78.80
70734;DHT22;58320;48.804;9.252;2023-12-20T15:13:09;5.20;79.60
70734;DHT22;58320;48.804;9.252;2023-12-20T15:15:34;5.10;79.70
70734;DHT22;58320;48.804;9.252;2023-12-20T15:18:00;5.10;79.80
70734;DHT22;58320;48.804;9.252;2023-12-20T15:20:28;5.10;79.80
70734;DHT22;58320;48.804;9.252;2023-12-20T15:22:54;5.10;79.80
70734;DHT22;58320;48.804;9.252;2023-12-20T15:25:20;5.10;80.70
70734;DHT22;58320;48.804;9.252;2023-12-20T15:27:48;5.10;80.10
70734;DHT22;58320;48.804;9.252;2023-12-20T15:30:21;5.10;79.60
70734;DHT22;58320;48.804;9.252;2023-12-20T15:32:49;5.10;79.70
70734;DHT22;58320;48.804;9.252;2023-12-20T15:35:15;5.10;79.60
70734;DHT22;58320;48.804;9.252;2023-12-20T15:37:41;5.20;79.70
70734;DHT22;58320;48.804;9.252;2023-12-20T15:40:08;5.20;78.70
70734;DHT22;58320;48.804;9.252;2023-12-20T15:42:38;5.20;78.90
70734;DHT22;58320;48.804;9.252;2023-12-20T15:45:05;5.30;78.80
70734;DHT22;58320;48.804;9.252;2023-12-20T15:47:33;5.30;78.70